createdAt,value
2022-09-24T00:01:22.013Z,15.07
2022-09-24T00:03:57.329Z,15.13
2022-09-24T00:06:24.265Z,15.18
2022-09-24T00:08:55.005Z,15.22
2022-09-24T00:11:22.929Z,15.24
2022-09-24T00:13:51.756Z,15.26
2022-09-24T00:16:20.592Z,15.27
2022-09-24T00:18:47.080Z,15.27
2022-09-24T00:21:25.504Z,15.25
2022-09-24T00:23:58.154Z,15.21
2022-09-24T00:26:43.906Z,15.27
2022-09-24T00:29:11.350Z,15.28
2022-09-24T00:31:38.231Z,15.27
2022-09-24T00:34:05.358Z,15.28
2022-09-24T00:36:31.842Z,15.30
2022-09-24T00:39:00.297Z,15.31
2022-09-24T00:41:31.535Z,15.24
2022-09-24T00:43:58.327Z,15.29
2022-09-24T00:46:36.634Z,15.30
2022-09-24T00:49:12.867Z,15.29
2022-09-24T00:51:41.404Z,15.24
2022-09-24T00:54:28.892Z,15.25
2022-09-24T00:56:58.884Z,15.21
2022-09-24T00:59:27.374Z,15.16
2022-09-24T01:01:59.394Z,15.15
2022-09-24T01:04:28.409Z,15.11
2022-09-24T01:06:56.616Z,15.10
2022-09-24T01:09:25.945Z,15.17
2022-09-24T01:11:55.413Z,15.20
2022-09-24T01:14:32.985Z,15.18
2022-09-24T01:17:20.935Z,15.18
2022-09-24T01:20:05.839Z,15.18
2022-09-24T01:22:51.195Z,15.21
2022-09-24T01:25:29.756Z,15.22
2022-09-24T01:28:13.639Z,15.22
2022-09-24T01:30:42.609Z,15.20
2022-09-24T01:33:16.161Z,15.20
2022-09-24T01:36:08.267Z,15.19
2022-09-24T01:38:42.045Z,15.19
2022-09-24T01:41:12.163Z,15.16
2022-09-24T01:43:39.188Z,15.12
2022-09-24T01:46:07.240Z,15.09
2022-09-24T01:48:37.368Z,15.12
2022-09-24T01:51:28.675Z,15.08
2022-09-24T01:54:03.890Z,15.09
2022-09-24T01:56:33.414Z,15.12
2022-09-24T01:59:06.372Z,15.11
2022-09-24T02:01:40.583Z,15.06
2022-09-24T02:04:15.563Z,15.12
2022-09-24T02:06:54.778Z,15.12
2022-09-24T02:09:33.340Z,15.13
2022-09-24T02:12:07.143Z,15.11
2022-09-24T02:14:40.037Z,15.09
2022-09-24T02:17:07.065Z,15.03
2022-09-24T02:19:37.642Z,15.07
2022-09-24T02:22:09.408Z,15.06
2022-09-24T02:24:52.371Z,15.06
2022-09-24T02:27:19.503Z,15.06
2022-09-24T02:29:46.248Z,15.06
2022-09-24T02:32:16.388Z,15.06
2022-09-24T02:34:51.983Z,15.04
2022-09-24T02:37:20.318Z,15.04
2022-09-24T02:39:46.778Z,14.95
2022-09-24T02:42:14.805Z,15.00
2022-09-24T02:44:41.452Z,14.98
2022-09-24T02:47:08.183Z,14.95
2022-09-24T02:49:34.688Z,14.87
2022-09-24T02:52:01.635Z,14.88
2022-09-24T02:54:28.244Z,14.87
2022-09-24T02:56:55.111Z,14.87
2022-09-24T02:59:21.620Z,14.88
2022-09-24T03:01:48.771Z,14.83
2022-09-24T03:04:16.061Z,14.86
2022-09-24T03:06:43.121Z,14.86
2022-09-24T03:09:12.914Z,14.86
2022-09-24T03:11:40.073Z,14.82
2022-09-24T03:14:06.748Z,14.87
2022-09-24T03:16:33.818Z,14.86
2022-09-24T03:19:00.358Z,14.85
2022-09-24T03:21:26.940Z,14.86
2022-09-24T03:23:53.682Z,14.84
2022-09-24T03:26:20.289Z,14.84
2022-09-24T03:28:46.754Z,14.82
2022-09-24T03:31:14.002Z,14.81
2022-09-24T03:33:46.188Z,14.80
2022-09-24T03:36:24.447Z,14.79
2022-09-24T03:38:56.409Z,14.75
2022-09-24T03:41:27.690Z,14.78
2022-09-24T03:43:54.690Z,14.75
2022-09-24T03:46:21.997Z,14.71
2022-09-24T03:48:49.111Z,14.69
2022-09-24T03:51:18.774Z,14.70
2022-09-24T03:53:46.245Z,14.69
2022-09-24T03:56:12.846Z,14.65
2022-09-24T03:58:40.417Z,14.65
2022-09-24T04:01:08.343Z,14.61
2022-09-24T04:03:36.245Z,14.64
2022-09-24T04:06:03.791Z,14.62
2022-09-24T04:08:31.545Z,14.59
2022-09-24T04:10:58.186Z,14.60
2022-09-24T04:13:24.695Z,14.60
2022-09-24T04:15:51.571Z,14.62
2022-09-24T04:18:19.005Z,14.59
2022-09-24T04:20:45.585Z,14.63
2022-09-24T04:23:12.370Z,14.63
2022-09-24T04:25:40.637Z,14.62
2022-09-24T04:28:08.600Z,14.61
2022-09-24T04:30:36.189Z,14.61
2022-09-24T04:33:03.071Z,14.60
2022-09-24T04:35:32.066Z,14.60
2022-09-24T04:37:59.542Z,14.60
2022-09-24T04:40:26.894Z,14.57
2022-09-24T04:42:53.487Z,14.57
2022-09-24T04:45:20.880Z,14.54
2022-09-24T04:47:52.555Z,14.52
2022-09-24T04:50:20.733Z,14.48
2022-09-24T04:52:47.482Z,14.52
2022-09-24T04:55:14.751Z,14.53
2022-09-24T04:57:41.419Z,14.52
2022-09-24T05:00:14.665Z,14.50
2022-09-24T05:02:42.683Z,14.49
2022-09-24T05:05:11.317Z,14.49
2022-09-24T05:07:38.142Z,14.48
2022-09-24T05:10:06.149Z,14.48
2022-09-24T05:12:34.013Z,14.39
2022-09-24T05:15:01.048Z,14.42
2022-09-24T05:17:27.579Z,14.40
2022-09-24T05:19:54.069Z,14.39
2022-09-24T05:22:20.907Z,14.39
2022-09-24T05:24:47.346Z,14.40
2022-09-24T05:27:13.804Z,14.40
2022-09-24T05:29:43.369Z,14.35
2022-09-24T05:32:12.650Z,14.28
2022-09-24T05:34:39.169Z,14.25
2022-09-24T05:37:05.848Z,14.19
2022-09-24T05:39:34.228Z,14.26
2022-09-24T05:42:03.633Z,14.25
2022-09-24T05:44:31.411Z,14.28
2022-09-24T05:46:58.401Z,14.24
2022-09-24T05:49:25.182Z,14.31
2022-09-24T05:51:51.749Z,14.33
2022-09-24T05:54:18.526Z,14.34
2022-09-24T05:56:45.629Z,14.37
2022-09-24T05:59:12.450Z,14.33
2022-09-24T06:01:39.143Z,14.40
2022-09-24T06:04:08.816Z,14.41
2022-09-24T06:06:36.343Z,14.45
2022-09-24T06:09:03.392Z,14.46
2022-09-24T06:11:39.717Z,14.46
2022-09-24T06:14:06.894Z,14.45
2022-09-24T06:16:34.345Z,14.47
2022-09-24T06:19:01.248Z,14.45
2022-09-24T06:21:27.801Z,14.52
2022-09-24T06:23:54.537Z,14.54
2022-09-24T06:26:21.325Z,14.57
2022-09-24T06:28:47.892Z,14.60
2022-09-24T06:31:14.463Z,14.63
2022-09-24T06:33:40.997Z,14.65
2022-09-24T06:36:07.771Z,14.71
2022-09-24T06:38:35.333Z,14.68
2022-09-24T06:41:04.618Z,14.69
2022-09-24T06:43:32.359Z,14.74
2022-09-24T06:45:59.794Z,14.69
2022-09-24T06:48:27.636Z,14.75
2022-09-24T06:50:54.808Z,14.81
2022-09-24T06:53:21.398Z,14.82
2022-09-24T06:55:48.920Z,14.82
2022-09-24T06:58:20.018Z,14.87
2022-09-24T07:00:58.935Z,14.91
2022-09-24T07:03:27.165Z,14.99
2022-09-24T07:05:54.198Z,15.03
2022-09-24T07:08:21.354Z,15.06
2022-09-24T07:10:54.776Z,15.09
2022-09-24T07:13:21.555Z,15.16
2022-09-24T07:15:50.402Z,15.21
2022-09-24T07:18:17.660Z,15.30
2022-09-24T07:20:44.291Z,15.37
2022-09-24T07:23:12.114Z,15.45
2022-09-24T07:25:39.338Z,15.53
2022-09-24T07:28:12.058Z,15.63
2022-09-24T07:30:39.473Z,15.73
2022-09-24T07:33:07.456Z,15.78
2022-09-24T07:35:36.864Z,15.86
2022-09-24T07:38:06.554Z,15.93
2022-09-24T07:40:33.569Z,15.99
2022-09-24T07:43:00.696Z,16.01
2022-09-24T07:45:29.737Z,15.97
2022-09-24T07:48:01.411Z,16.00
2022-09-24T07:50:29.875Z,16.01
2022-09-24T07:52:56.860Z,16.01
2022-09-24T07:55:24.233Z,15.99
2022-09-24T07:57:53.033Z,15.93
2022-09-24T08:00:21.197Z,15.95
2022-09-24T08:02:48.406Z,15.95
2022-09-24T08:05:16.567Z,16.04
2022-09-24T08:07:43.152Z,16.04
2022-09-24T08:10:10.040Z,16.17
2022-09-24T08:12:36.492Z,16.25
2022-09-24T08:15:03.106Z,16.31
2022-09-24T08:17:29.554Z,16.41
2022-09-24T08:19:56.965Z,16.48
2022-09-24T08:22:25.001Z,16.58
2022-09-24T08:24:51.591Z,16.46
2022-09-24T08:27:19.270Z,16.62
2022-09-24T08:29:46.047Z,16.71
2022-09-24T08:32:13.328Z,16.78
2022-09-24T08:34:40.652Z,16.81
2022-09-24T08:37:08.086Z,16.83
2022-09-24T08:39:35.247Z,16.88
2022-09-24T08:42:04.507Z,16.91
2022-09-24T08:44:56.803Z,17.03
2022-09-24T08:47:43.377Z,17.07
2022-09-24T08:50:17.382Z,17.21
2022-09-24T08:52:43.808Z,17.32
2022-09-24T08:55:22.486Z,17.32
2022-09-24T08:58:08.947Z,17.47
2022-09-24T09:00:43.936Z,17.50
2022-09-24T09:03:22.576Z,17.43
2022-09-24T09:05:56.963Z,17.47
2022-09-24T09:09:06.438Z,17.48
2022-09-24T09:11:36.904Z,17.56
2022-09-24T09:14:11.898Z,17.61
2022-09-24T09:16:53.595Z,17.65
2022-09-24T09:19:27.367Z,17.92
2022-09-24T09:22:08.140Z,17.76
2022-09-24T09:24:49.857Z,17.82
2022-09-24T09:27:18.162Z,17.99
2022-09-24T09:29:50.586Z,18.13
2022-09-24T09:32:34.975Z,18.10
2022-09-24T09:35:14.097Z,18.15
2022-09-24T09:38:00.710Z,18.10
2022-09-24T09:40:39.709Z,18.24
2022-09-24T09:43:11.644Z,18.05
2022-09-24T09:45:44.988Z,18.06
2022-09-24T09:48:14.099Z,17.91
2022-09-24T09:50:52.084Z,17.94
2022-09-24T09:53:23.511Z,18.20
2022-09-24T09:56:01.289Z,18.27
2022-09-24T09:58:31.116Z,18.28
2022-09-24T10:01:31.825Z,18.39
2022-09-24T10:04:03.136Z,18.21
2022-09-24T10:06:32.094Z,18.43
2022-09-24T10:09:22.331Z,18.59
2022-09-24T10:11:48.930Z,18.55
2022-09-24T10:14:19.192Z,18.58
2022-09-24T10:16:52.403Z,18.32
2022-09-24T10:19:24.845Z,18.29
2022-09-24T10:21:53.564Z,18.43
2022-09-24T10:24:25.363Z,18.52
2022-09-24T10:26:53.168Z,18.75
2022-09-24T10:29:42.715Z,19.00
2022-09-24T10:32:21.702Z,19.18
2022-09-24T10:35:18.792Z,19.00
2022-09-24T10:37:57.036Z,19.16
2022-09-24T10:40:30.966Z,19.27
2022-09-24T10:43:02.341Z,19.34
2022-09-24T10:45:44.104Z,19.42
2022-09-24T10:48:19.681Z,19.54
2022-09-24T10:50:51.915Z,19.56
2022-09-24T10:53:28.775Z,19.55
2022-09-24T10:56:06.335Z,19.49
2022-09-24T10:59:09.515Z,19.45
2022-09-24T11:01:56.243Z,19.40
2022-09-24T11:04:28.805Z,19.32
2022-09-24T11:07:42.763Z,19.07
2022-09-24T11:10:18.315Z,18.85
2022-09-24T11:13:10.620Z,18.85
2022-09-24T11:15:46.777Z,18.84
2022-09-24T11:18:36.564Z,18.77
2022-09-24T11:21:02.923Z,18.73
2022-09-24T11:23:53.925Z,18.67
2022-09-24T11:26:49.760Z,18.47
2022-09-24T11:29:25.191Z,18.38
2022-09-24T11:32:10.110Z,18.26
2022-09-24T11:34:37.778Z,18.21
2022-09-24T11:37:13.032Z,18.19
2022-09-24T11:39:57.744Z,18.19
2022-09-24T11:42:43.748Z,18.17
2022-09-24T11:45:34.162Z,18.23
2022-09-24T11:48:22.332Z,18.24
2022-09-24T11:51:01.930Z,18.25
2022-09-24T11:53:46.285Z,18.40
2022-09-24T11:56:47.206Z,18.62
2022-09-24T11:59:19.367Z,18.82
2022-09-24T12:01:56.292Z,19.07
2022-09-24T12:04:44.412Z,19.23
2022-09-24T12:07:15.886Z,19.38
2022-09-24T12:10:29.696Z,19.26
2022-09-24T12:13:18.583Z,19.27
2022-09-24T12:16:11.160Z,19.25
2022-09-24T12:18:49.710Z,19.26
2022-09-24T12:21:28.055Z,19.30
2022-09-24T12:24:03.029Z,19.36
2022-09-24T12:26:31.339Z,19.29
2022-09-24T12:30:00.860Z,19.19
2022-09-24T12:32:54.684Z,19.29
2022-09-24T12:35:33.297Z,19.35
2022-09-24T12:38:24.012Z,19.37
2022-09-24T12:41:18.546Z,19.19
2022-09-24T12:43:50.219Z,19.25
2022-09-24T12:46:20.779Z,19.29
2022-09-24T12:48:49.764Z,19.20
2022-09-24T12:51:22.118Z,19.27
2022-09-24T12:53:58.788Z,19.33
2022-09-24T12:56:30.836Z,19.42
2022-09-24T12:58:58.092Z,19.46
2022-09-24T13:01:24.685Z,19.34
2022-09-24T13:04:13.935Z,19.30
2022-09-24T13:06:42.427Z,19.39
2022-09-24T13:09:37.517Z,19.38
2022-09-24T13:12:06.341Z,19.37
2022-09-24T13:14:34.292Z,19.38
2022-09-24T13:17:05.644Z,19.40
2022-09-24T13:19:41.045Z,19.41
2022-09-24T13:22:25.281Z,19.40
2022-09-24T13:25:05.304Z,19.41
2022-09-24T13:27:31.679Z,19.40
2022-09-24T13:30:19.218Z,19.37
2022-09-24T13:33:15.278Z,19.41
2022-09-24T13:35:44.355Z,19.41
2022-09-24T13:38:21.798Z,19.41
2022-09-24T13:41:03.749Z,19.46
2022-09-24T13:43:37.341Z,19.50
2022-09-24T13:46:08.303Z,19.56
2022-09-24T13:48:45.254Z,19.53
2022-09-24T13:51:14.168Z,19.54
2022-09-24T13:53:49.570Z,19.58
2022-09-24T13:56:19.167Z,19.59
2022-09-24T13:58:46.936Z,19.63
2022-09-24T14:01:26.920Z,19.61
2022-09-24T14:04:01.202Z,19.58
2022-09-24T14:06:37.106Z,19.54
2022-09-24T14:09:24.817Z,19.56
2022-09-24T14:11:56.369Z,19.58
2022-09-24T14:14:26.616Z,19.53
2022-09-24T14:16:56.538Z,19.47
2022-09-24T14:19:23.787Z,19.39
2022-09-24T14:21:57.764Z,19.38
2022-09-24T14:24:32.816Z,19.34
2022-09-24T14:27:09.517Z,19.27
2022-09-24T14:29:48.128Z,19.23
2022-09-24T14:32:34.162Z,19.19
2022-09-24T14:35:05.333Z,19.19
2022-09-24T14:37:35.600Z,19.14
2022-09-24T14:40:07.504Z,19.14
2022-09-24T14:42:47.822Z,19.10
2022-09-24T14:45:21.265Z,19.07
2022-09-24T14:47:48.313Z,18.87
2022-09-24T14:50:37.369Z,18.77
2022-09-24T14:53:13.988Z,18.77
2022-09-24T14:55:43.355Z,18.67
2022-09-24T14:58:28.165Z,18.63
2022-09-24T15:00:58.177Z,18.64
2022-09-24T15:03:37.749Z,18.59
2022-09-24T15:06:07.823Z,18.59
2022-09-24T15:08:34.371Z,18.54
2022-09-24T15:11:03.701Z,18.52
2022-09-24T15:13:36.129Z,18.51
2022-09-24T15:16:27.472Z,18.50
2022-09-24T15:19:17.444Z,18.47
2022-09-24T15:21:45.087Z,18.48
2022-09-24T15:24:12.044Z,18.43
2022-09-24T15:26:41.904Z,18.48
2022-09-24T15:29:17.352Z,18.48
2022-09-24T15:31:43.884Z,18.48
2022-09-24T15:34:10.472Z,18.47
2022-09-24T15:36:37.891Z,18.45
2022-09-24T15:39:04.874Z,18.42
2022-09-24T15:41:31.327Z,18.43
2022-09-24T15:43:59.086Z,18.39
2022-09-24T15:46:26.142Z,18.40
2022-09-24T15:48:52.787Z,18.41
2022-09-24T15:51:22.230Z,18.41
2022-09-24T15:53:50.075Z,18.41
2022-09-24T15:56:16.854Z,18.39
2022-09-24T15:58:43.371Z,18.37
2022-09-24T16:01:15.794Z,18.38
2022-09-24T16:03:43.458Z,18.38
2022-09-24T16:06:12.122Z,18.35
2022-09-24T16:08:38.712Z,18.27
2022-09-24T16:11:08.884Z,18.30
2022-09-24T16:13:35.764Z,18.25
2022-09-24T16:16:05.471Z,18.22
2022-09-24T16:18:32.175Z,18.19
2022-09-24T16:20:58.640Z,18.16
2022-09-24T16:23:25.204Z,18.11
2022-09-24T16:25:56.623Z,18.04
2022-09-24T16:28:24.274Z,18.04
2022-09-24T16:30:51.046Z,18.02
2022-09-24T16:33:17.647Z,17.98
2022-09-24T16:35:44.128Z,17.94
2022-09-24T16:38:10.711Z,17.90
2022-09-24T16:40:37.640Z,17.86
2022-09-24T16:43:04.586Z,17.83
2022-09-24T16:45:31.841Z,17.80
2022-09-24T16:47:58.424Z,17.78
2022-09-24T16:50:25.405Z,17.76
2022-09-24T16:52:54.827Z,17.66
2022-09-24T16:55:25.603Z,17.66
2022-09-24T16:57:52.668Z,17.60
2022-09-24T17:00:20.039Z,17.62
2022-09-24T17:02:46.635Z,17.59
2022-09-24T17:05:13.214Z,17.57
2022-09-24T17:07:39.760Z,17.54
2022-09-24T17:10:13.144Z,17.51
2022-09-24T17:12:50.739Z,17.49
2022-09-24T17:15:20.532Z,17.46
2022-09-24T17:17:50.286Z,17.44
2022-09-24T17:20:17.857Z,17.44
2022-09-24T17:22:44.635Z,17.42
2022-09-24T17:25:11.205Z,17.39
2022-09-24T17:27:37.745Z,17.39
2022-09-24T17:30:05.352Z,17.38
2022-09-24T17:32:32.278Z,17.35
2022-09-24T17:34:59.023Z,17.32
2022-09-24T17:37:27.239Z,17.30
2022-09-24T17:39:53.717Z,17.30
2022-09-24T17:42:20.169Z,17.28
2022-09-24T17:44:46.681Z,17.24
2022-09-24T17:47:13.158Z,17.22
2022-09-24T17:49:39.658Z,17.18
2022-09-24T17:52:06.345Z,17.16
2022-09-24T17:54:32.803Z,17.13
2022-09-24T17:56:59.533Z,17.12
2022-09-24T17:59:27.127Z,17.10
2022-09-24T18:01:54.083Z,17.09
2022-09-24T18:04:21.464Z,17.05
2022-09-24T18:06:49.419Z,17.03
2022-09-24T18:09:17.153Z,17.01
2022-09-24T18:11:48.860Z,16.95
2022-09-24T18:14:18.469Z,16.97
2022-09-24T18:16:45.207Z,16.91
2022-09-24T18:19:13.394Z,16.89
2022-09-24T18:21:39.963Z,16.83
2022-09-24T18:24:07.149Z,16.83
2022-09-24T18:26:35.671Z,16.83
2022-09-24T18:29:05.895Z,16.83
2022-09-24T18:31:33.129Z,16.83
2022-09-24T18:34:05.815Z,16.80
2022-09-24T18:36:37.942Z,16.79
2022-09-24T18:39:06.781Z,16.77
2022-09-24T18:41:34.707Z,16.71
2022-09-24T18:44:01.416Z,16.74
2022-09-24T18:46:30.253Z,16.73
2022-09-24T18:48:58.100Z,16.72
2022-09-24T18:51:37.550Z,16.66
2022-09-24T18:54:12.134Z,16.64
2022-09-24T18:56:38.785Z,16.64
2022-09-24T18:59:10.278Z,16.63
2022-09-24T19:01:38.249Z,16.63
2022-09-24T19:04:05.215Z,16.62
2022-09-24T19:06:34.571Z,16.58
2022-09-24T19:09:01.097Z,16.57
2022-09-24T19:11:28.093Z,16.52
2022-09-24T19:13:54.668Z,16.52
2022-09-24T19:16:25.651Z,16.56
2022-09-24T19:18:53.572Z,16.55
2022-09-24T19:21:22.962Z,16.53
2022-09-24T19:23:51.559Z,16.53
2022-09-24T19:26:26.752Z,16.48
2022-09-24T19:28:53.990Z,16.45
2022-09-24T19:31:30.026Z,16.48
2022-09-24T19:33:57.299Z,16.48
2022-09-24T19:36:24.248Z,16.47
2022-09-24T19:38:51.887Z,16.46
2022-09-24T19:41:27.018Z,16.44
2022-09-24T19:44:02.113Z,16.43
2022-09-24T19:46:32.444Z,16.42
2022-09-24T19:48:59.108Z,16.40
2022-09-24T19:51:31.015Z,16.38
2022-09-24T19:54:06.707Z,16.39
2022-09-24T19:56:33.503Z,16.36
2022-09-24T19:59:01.350Z,16.35
2022-09-24T20:01:30.539Z,16.34
2022-09-24T20:03:59.527Z,16.32
2022-09-24T20:06:29.056Z,16.31
2022-09-24T20:08:57.087Z,16.27
2022-09-24T20:11:24.753Z,16.26
2022-09-24T20:13:53.685Z,16.23
2022-09-24T20:16:22.670Z,16.21
2022-09-24T20:18:51.110Z,16.19
2022-09-24T20:21:19.057Z,16.23
2022-09-24T20:23:47.067Z,16.19
2022-09-24T20:26:34.163Z,16.18
2022-09-24T20:29:02.037Z,16.19
2022-09-24T20:31:29.101Z,16.19
2022-09-24T20:33:55.641Z,16.21
2022-09-24T20:36:24.657Z,16.21
2022-09-24T20:38:52.071Z,16.19
2022-09-24T20:41:24.597Z,16.21
2022-09-24T20:43:55.111Z,16.19
2022-09-24T20:46:28.817Z,16.17
2022-09-24T20:49:00.065Z,16.19
2022-09-24T20:51:33.267Z,16.18
2022-09-24T20:54:00.146Z,16.13
2022-09-24T20:56:27.416Z,16.19
2022-09-24T20:58:54.330Z,16.12
2022-09-24T21:01:22.323Z,16.13
2022-09-24T21:03:51.851Z,16.13
2022-09-24T21:06:22.888Z,16.09
2022-09-24T21:08:49.643Z,16.03
2022-09-24T21:11:22.071Z,16.10
2022-09-24T21:13:50.774Z,16.09
2022-09-24T21:16:22.627Z,16.05
2022-09-24T21:18:50.801Z,16.03
2022-09-24T21:21:22.517Z,16.03
2022-09-24T21:23:51.495Z,15.98
2022-09-24T21:26:21.423Z,15.94
2022-09-24T21:28:50.580Z,15.95
2022-09-24T21:31:21.041Z,15.93
2022-09-24T21:33:49.576Z,15.90
2022-09-24T21:36:19.364Z,15.93
2022-09-24T21:39:03.972Z,15.87
2022-09-24T21:41:35.833Z,15.92
2022-09-24T21:44:03.154Z,15.88
2022-09-24T21:46:33.386Z,15.92
2022-09-24T21:49:01.133Z,15.87
2022-09-24T21:51:30.181Z,15.86
2022-09-24T21:54:04.404Z,15.86
2022-09-24T21:56:33.001Z,15.87
2022-09-24T21:58:59.843Z,15.82
2022-09-24T22:01:33.848Z,15.83
2022-09-24T22:04:07.312Z,15.88
2022-09-24T22:06:33.827Z,15.86
2022-09-24T22:09:06.501Z,15.84
2022-09-24T22:11:34.495Z,15.86
2022-09-24T22:14:02.379Z,15.84
2022-09-24T22:16:30.733Z,15.76
2022-09-24T22:18:57.379Z,15.80
2022-09-24T22:21:23.885Z,15.77
2022-09-24T22:23:50.488Z,15.79
2022-09-24T22:26:18.648Z,15.71
2022-09-24T22:28:45.526Z,15.77
2022-09-24T22:31:15.551Z,15.76
2022-09-24T22:34:01.450Z,15.76
2022-09-24T22:36:29.484Z,15.71
2022-09-24T22:38:57.330Z,15.74
2022-09-24T22:41:24.521Z,15.74
2022-09-24T22:43:52.208Z,15.72
2022-09-24T22:46:19.995Z,15.70
2022-09-24T22:48:50.142Z,15.70
2022-09-24T22:51:16.637Z,15.70
2022-09-24T22:53:43.133Z,15.69
2022-09-24T22:56:18.615Z,15.67
2022-09-24T22:58:54.661Z,15.65
2022-09-24T23:01:24.335Z,15.71
2022-09-24T23:03:52.677Z,15.69
2022-09-24T23:06:20.977Z,15.69
2022-09-24T23:08:48.213Z,15.67
2022-09-24T23:11:15.731Z,15.67
2022-09-24T23:13:44.354Z,15.65
2022-09-24T23:16:12.228Z,15.63
2022-09-24T23:18:40.269Z,15.63
2022-09-24T23:21:09.027Z,15.59
2022-09-24T23:23:36.103Z,15.57
2022-09-24T23:26:16.198Z,15.50
2022-09-24T23:28:45.919Z,15.52
2022-09-24T23:31:14.777Z,15.50
2022-09-24T23:33:42.621Z,15.50
2022-09-24T23:36:11.906Z,15.50
2022-09-24T23:38:40.428Z,15.46
2022-09-24T23:41:08.819Z,15.44
2022-09-24T23:43:35.997Z,15.45
2022-09-24T23:46:03.810Z,15.41
2022-09-24T23:48:30.886Z,15.39
2022-09-24T23:50:58.411Z,15.44
2022-09-24T23:53:25.460Z,15.42
2022-09-24T23:55:53.914Z,15.40
2022-09-24T23:58:22.013Z,15.41
